createdAt,value
2018-05-27T00:09:56.574Z,98594.61
2018-05-27T00:30:28.752Z,98572.36
2018-05-27T00:51:00.952Z,98558.59
2018-05-27T01:11:33.154Z,98553.77
2018-05-27T01:32:10.268Z,98548.18
2018-05-27T01:52:44.619Z,98538.96
2018-05-27T02:13:20.107Z,98512.86
2018-05-27T02:33:56.086Z,98500.37
2018-05-27T02:54:31.366Z,98498.23
2018-05-27T03:15:04.476Z,98475.34
2018-05-27T03:35:39.002Z,98464.89
2018-05-27T03:56:11.951Z,98466.50
2018-05-27T04:16:44.152Z,98484.04
2018-05-27T04:37:19.429Z,98503.14
2018-05-27T04:57:53.775Z,98497.84
2018-05-27T05:18:26.899Z,98506.85
2018-05-27T05:38:58.170Z,98512.67
2018-05-27T05:59:30.372Z,98504.73
2018-05-27T06:20:05.341Z,98515.91
2018-05-27T06:40:36.620Z,98522.20
2018-05-27T07:01:10.666Z,98522.90
2018-05-27T07:21:42.290Z,98510.96
2018-05-27T07:42:16.316Z,98506.77
2018-05-27T08:02:48.488Z,98525.18
2018-05-27T08:23:23.760Z,98523.46
2018-05-27T08:43:58.732Z,98544.65
2018-05-27T09:04:31.239Z,98536.78
2018-05-27T09:25:09.681Z,98537.25
2018-05-27T09:45:43.618Z,98534.16
2018-05-27T10:06:17.327Z,98520.52
2018-05-27T10:26:57.367Z,98505.53
2018-05-27T10:47:30.362Z,98486.28
2018-05-27T11:08:03.482Z,98478.47
2018-05-27T11:46:37.352Z,98442.05
2018-05-27T12:07:14.471Z,98417.28
2018-05-27T12:27:51.579Z,98389.56
2018-05-27T12:48:24.088Z,98375.88
2018-05-27T13:08:56.319Z,98339.76
2018-05-27T13:29:29.417Z,98345.75
2018-05-27T13:50:04.686Z,98310.27
2018-05-27T14:10:36.885Z,98310.14
2018-05-27T14:31:09.085Z,98317.70
2018-05-27T14:51:35.147Z,98358.97
2018-05-27T15:12:12.567Z,98465.12
2018-05-27T17:04:57.039Z,98315.22
2018-05-27T17:07:25.325Z,98320.34
2018-05-27T17:09:53.673Z,98313.83
2018-05-27T17:12:21.978Z,98319.47
2018-05-27T17:14:50.287Z,98322.97
2018-05-27T17:17:22.071Z,98323.52
2018-05-27T17:19:50.352Z,98323.98
2018-05-27T17:22:19.235Z,98319.84
2018-05-27T17:24:47.564Z,98325.34
2018-05-27T17:27:15.927Z,98325.38
2018-05-27T17:29:44.293Z,98321.31
2018-05-27T17:32:12.595Z,98319.72
2018-05-27T17:34:45.036Z,98318.80
2018-05-27T17:37:21.156Z,98317.36
2018-05-27T17:39:50.206Z,98310.80
2018-05-27T17:42:18.489Z,98307.97
2018-05-27T17:44:46.778Z,98311.30
2018-05-27T17:47:16.024Z,98300.52
2018-05-27T17:49:45.117Z,98301.16
2018-05-27T17:52:13.485Z,98296.61
2018-05-27T17:54:41.813Z,98299.52
2018-05-27T17:57:11.024Z,98296.56
2018-05-27T17:59:39.322Z,98295.97
2018-05-27T18:02:07.591Z,98296.48
2018-05-27T18:04:35.873Z,98303.03
2018-05-27T18:07:04.181Z,98297.29
2018-05-27T18:09:32.499Z,98302.77
2018-05-27T18:12:01.702Z,98299.34
2018-05-27T18:14:30.974Z,98301.05
2018-05-27T18:16:59.253Z,98306.75
2018-05-27T18:19:27.508Z,98312.01
2018-05-27T18:21:56.657Z,98317.93
2018-05-27T18:24:24.990Z,98317.02
2018-05-27T18:26:53.301Z,98317.63
2018-05-27T18:29:21.626Z,98324.37
2018-05-27T18:31:49.910Z,98330.26
2018-05-27T18:34:18.221Z,98333.51
2018-05-27T18:36:47.277Z,98328.20
2018-05-27T18:39:16.924Z,98328.15
2018-05-27T18:41:45.336Z,98328.73
2018-05-27T18:44:14.380Z,98330.63
2018-05-27T18:46:42.670Z,98340.35
2018-05-27T18:49:11.704Z,98337.00
2018-05-27T18:51:40.550Z,98339.43
2018-05-27T18:54:08.814Z,98338.76
2018-05-27T18:56:37.137Z,98348.02
2018-05-27T18:59:05.461Z,98355.31
2018-05-27T19:01:33.748Z,98362.94
2018-05-27T19:04:02.043Z,98372.82
2018-05-27T19:06:30.337Z,98381.92
2018-05-27T19:08:58.701Z,98386.71
2018-05-27T19:11:27.774Z,98395.05
2018-05-27T19:13:57.188Z,98411.25
2018-05-27T19:16:25.738Z,98416.02
2018-05-27T19:18:54.045Z,98422.80
2018-05-27T19:21:22.365Z,98428.64
2018-05-27T19:23:50.796Z,98457.55
2018-05-27T19:26:19.234Z,98468.61
2018-05-27T19:28:47.572Z,98472.62
2018-05-27T19:31:15.864Z,98469.62
2018-05-27T19:33:44.167Z,98473.78
2018-05-27T19:36:12.439Z,98469.36
2018-05-27T19:38:41.215Z,98474.55
2018-05-27T19:41:09.517Z,98475.32
2018-05-27T19:43:37.822Z,98475.78
2018-05-27T19:46:06.103Z,98475.97
2018-05-27T19:48:34.704Z,98484.27
2018-05-27T19:51:03.000Z,98486.16
2018-05-27T19:53:31.297Z,98492.87
2018-05-27T19:55:59.589Z,98481.80
2018-05-27T19:58:28.333Z,98489.25
2018-05-27T20:00:56.686Z,98486.03
2018-05-27T20:03:24.927Z,98487.70
2018-05-27T20:05:53.271Z,98478.73
2018-05-27T20:08:21.569Z,98483.66
2018-05-27T20:10:49.862Z,98479.22
2018-05-27T20:13:18.177Z,98477.64
2018-05-27T20:15:47.402Z,98485.35
2018-05-27T20:18:15.692Z,98495.97
2018-05-27T20:20:44.893Z,98499.78
2018-05-27T20:23:13.199Z,98492.26
2018-05-27T20:25:41.547Z,98492.57
2018-05-27T20:28:09.833Z,98496.98
2018-05-27T20:30:38.119Z,98492.70
2018-05-27T20:33:06.443Z,98494.03
2018-05-27T20:35:34.715Z,98498.08
2018-05-27T20:38:03.019Z,98492.28
2018-05-27T20:40:31.298Z,98491.13
2018-05-27T20:42:59.569Z,98491.75
2018-05-27T20:45:27.873Z,98486.84
2018-05-27T20:47:56.171Z,98476.70
2018-05-27T20:50:25.325Z,98467.72
2018-05-27T20:52:53.605Z,98460.30
2018-05-27T20:55:23.804Z,98459.12
2018-05-27T20:57:52.094Z,98454.74
2018-05-27T21:00:20.363Z,98449.81
2018-05-27T21:02:49.453Z,98453.13
2018-05-27T21:05:17.729Z,98450.78
2018-05-27T21:07:45.991Z,98456.45
2018-05-27T21:10:14.873Z,98457.75
2018-05-27T21:12:43.891Z,98461.52
2018-05-27T21:15:12.197Z,98459.92
2018-05-27T21:17:40.475Z,98462.37
2018-05-27T21:20:09.718Z,98459.47
2018-05-27T21:22:38.873Z,98458.59
2018-05-27T21:25:07.144Z,98455.91
2018-05-27T21:27:35.425Z,98463.97
2018-05-27T21:30:03.717Z,98461.78
2018-05-27T21:32:32.941Z,98455.75
2018-05-27T21:35:01.249Z,98447.33
2018-05-27T21:37:29.556Z,98453.37
2018-05-27T21:39:57.871Z,98458.03
2018-05-27T21:42:26.920Z,98460.14
2018-05-27T21:44:55.227Z,98461.37
2018-05-27T21:47:23.522Z,98461.19
2018-05-27T21:49:51.818Z,98463.09
2018-05-27T21:52:20.884Z,98451.45
2018-05-27T21:54:49.164Z,98442.64
2018-05-27T21:57:17.446Z,98439.57
2018-05-27T21:59:45.716Z,98434.27
2018-05-27T22:02:14.005Z,98444.60
2018-05-27T22:04:42.303Z,98438.41
2018-05-27T22:07:11.337Z,98436.61
2018-05-27T22:09:39.636Z,98443.59
2018-05-27T22:12:07.919Z,98436.61
2018-05-27T22:14:36.240Z,98434.81
2018-05-27T22:17:05.292Z,98430.07
2018-05-27T22:19:33.583Z,98442.27
2018-05-27T22:22:02.466Z,98440.95
2018-05-27T22:24:30.769Z,98441.77
2018-05-27T22:26:59.089Z,98438.08
2018-05-27T22:29:27.344Z,98441.77
2018-05-27T22:31:56.650Z,98444.51
2018-05-27T22:34:24.943Z,98443.45
2018-05-27T22:36:53.273Z,98430.86
2018-05-27T22:39:21.563Z,98427.70
2018-05-27T22:41:49.847Z,98431.16
2018-05-27T22:44:18.919Z,98431.16
2018-05-27T22:46:47.212Z,98430.52
2018-05-27T22:49:17.043Z,98432.82
2018-05-27T22:51:46.105Z,98436.98
2018-05-27T22:54:14.364Z,98425.09
2018-05-27T22:56:42.663Z,98425.64
2018-05-27T22:59:10.960Z,98422.02
2018-05-27T23:01:40.032Z,98416.53
2018-05-27T23:04:08.292Z,98420.49
2018-05-27T23:06:37.169Z,98424.07
2018-05-27T23:09:05.530Z,98431.21
2018-05-27T23:11:33.830Z,98429.59
2018-05-27T23:14:02.122Z,98428.42
2018-05-27T23:16:30.509Z,98440.09
2018-05-27T23:18:58.789Z,98437.00
2018-05-27T23:21:27.102Z,98437.59
2018-05-27T23:23:56.155Z,98438.55
2018-05-27T23:26:24.473Z,98434.49
2018-05-27T23:28:52.741Z,98441.34
2018-05-27T23:31:21.019Z,98443.73
2018-05-27T23:33:49.330Z,98451.05
2018-05-27T23:36:17.862Z,98462.58
2018-05-27T23:38:47.113Z,98462.98
2018-05-27T23:41:15.412Z,98456.86
2018-05-27T23:43:43.698Z,98459.53
2018-05-27T23:46:11.988Z,98457.70
2018-05-27T23:48:40.307Z,98463.08
2018-05-27T23:51:08.619Z,98461.44
2018-05-27T23:53:36.895Z,98456.43
2018-05-27T23:56:05.984Z,98453.53
2018-05-27T23:58:37.356Z,98458.67
